Latest Weather Observations for Dalby

IDQ60801

Issued at 6:02 pm EST Friday 23 June 2017 (issued every 30 minutes, with the page automatically refreshed every 10 minutes)

About weather observations | Map of weather stations | Latest weather observations for QLD | Other Formats
Station Details ID: 041522 Name: DALBY AIRPORT Lat: -27.16 Lon: 151.26 Height: 343.9 m
Data from the previous 72 hours. | See also: Recent months at Dalby
Date/Time
EST
Temp
°C
App
Temp
°C
Dew
Point
°C
Rel
Hum
%
Delta-T
°C
Wind Press
QNH
hPa
Press
MSL
hPa
Rain since
9am
mm
Dir  Spd
km/h
Gust
km/h
Spd
kts
Gust
kts
23/06:00pm 15.4 12.7 3.5 45 5.5 WSW 7 9 4 5 1019.1 1018.9 0.0
23/05:30pm 17.3 14.1 2.9 38 6.7 W 9 11 5 6 1019.0 1018.8 0.0
23/05:00pm 19.4 16.1 2.7 33 7.9 W 9 11 5 6 1018.9 1018.7 0.0
23/04:30pm 21.4 17.8 3.1 30 8.8 W 11 19 6 10 1018.7 1018.5 0.0
23/04:00pm 21.8 17.5 3.0 29 9.1 WNW 15 20 8 11 1018.7 1018.5 0.0
23/03:30pm 22.0 18.1 3.6 30 9.0 W 13 20 7 11 1018.7 1018.5 0.0
23/03:00pm 22.3 19.8 4.8 32 8.8 SW 7 19 4 10 1018.7 1018.5 0.0
23/02:30pm 22.0 17.5 4.1 31 8.9 WNW 17 24 9 13 1019.2 1019.0 0.0
23/02:00pm 21.1 16.7 4.6 34 8.2 WNW 17 28 9 15 1019.6 1019.4 0.0
23/01:30pm 21.0 16.6 4.6 34 8.1 W 17 30 9 16 1020.1 1020.0 0.0
23/01:00pm 21.1 16.9 5.9 37 7.7 W 17 24 9 13 1020.6 1020.5 0.0
23/12:30pm 21.2 17.4 5.9 37 7.8 WNW 15 26 8 14 1021.2 1021.0 0.0
23/12:00pm 20.4 16.8 6.7 41 7.0 WNW 15 28 8 15 1021.8 1021.6 0.0
23/11:30am 19.5 15.9 6.9 44 6.5 W 15 22 8 12 1022.3 1022.1 0.0
23/11:00am 19.2 16.8 7.0 45 6.2 WNW 9 17 5 9 1023.0 1022.9 0.0
23/10:30am 18.0 16.3 7.4 50 5.4 N 6 11 3 6 1023.5 1023.4 0.0
23/10:00am 16.8 15.2 8.0 56 4.5 NNW 6 9 3 5 1023.8 1023.7 0.0
23/09:30am 14.5 12.9 7.8 64 3.4 WSW 6 9 3 5 1023.9 1023.8 0.0
23/09:00am 13.0 11.9 7.0 67 2.9 WNW 2 7 1 4 1023.8 1023.7 0.0
23/08:30am 10.9 9.4 6.8 76 2.0 NE 4 7 2 4 1023.5 1023.4 0.0
23/08:00am 8.3 6.2 5.8 84 1.1 ENE 6 7 3 4 1023.4 1023.3 0.0
23/07:30am 6.0 4.1 4.8 92 0.5 E 4 7 2 4 1023.2 1023.1 0.0
23/07:00am 3.1 1.3 1.5 89 0.6 CALM 0 0 0 0 1023.1 1023.0 0.0
23/06:30am 2.7 0.8 0.8 87 0.7 CALM 0 0 0 0 1023.1 1023.0 0.0
23/06:00am 3.5 1.8 1.7 88 0.7 CALM 0 0 0 0 1022.6 1022.5 0.0
23/05:30am 3.8 1.0 2.0 88 0.7 WNW 6 9 3 5 1022.3 1022.1 0.0
23/05:00am 3.6 1.4 1.0 83 1.0 SSW 2 9 1 5 1022.2 1022.0 0.0
23/04:30am 5.1 3.7 3.3 88 0.8 CALM 0 0 0 0 1022.0 1021.8 0.0
23/04:00am 4.6 3.0 2.3 85 0.9 CALM 0 0 0 0 1022.1 1021.9 0.0
23/03:30am 4.8 2.1 2.8 87 0.8 E 6 7 3 4 1022.2 1022.0 0.0
23/03:00am 5.2 2.6 3.2 87 0.8 ESE 6 7 3 4 1022.4 1022.2 0.0
23/02:30am 5.5 2.7 3.3 86 0.9 SE 7 7 4 4 1022.6 1022.5 0.0
23/02:00am 5.8 2.7 3.5 85 1.0 ESE 9 11 5 6 1022.7 1022.6 0.0
23/01:30am 6.3 2.6 4.5 88 0.8 SE 13 15 7 8 1022.9 1022.8 0.0
23/01:00am 6.1 2.3 3.9 86 0.9 ESE 13 13 7 7 1022.9 1022.8 0.0
23/12:30am 6.3 2.8 3.6 83 1.2 ESE 11 11 6 6 1023.2 1023.1 0.0
23/12:00am 7.3 4.0 4.6 83 1.2 ESE 11 13 6 7 1023.5 1023.4 0.0
 
Date/Time
EST
Temp
°C
App
Temp
°C
Dew
Point
°C
Rel
Hum
%
Delta-T
°C
Wind Press
QNH
hPa
Press
MSL
hPa
Rain since
9am
mm
Dir  Spd
km/h
Gust
km/h
Spd
kts
Gust
kts
22/11:30pm 8.2 4.7 5.5 83 1.2 ESE 13 13 7 7 1023.6 1023.5 0.0
22/11:00pm 8.5 4.6 5.4 81 1.4 SE 15 17 8 9 1023.8 1023.7 0.0
22/10:30pm 8.5 4.9 4.9 78 1.6 ESE 13 15 7 8 1024.1 1023.9 0.0
22/10:00pm 10.8 7.9 6.4 74 2.1 SE 11 13 6 7 1024.1 1023.9 0.0
22/09:30pm 11.4 8.8 6.1 70 2.5 SE 9 13 5 7 1024.1 1023.9 0.0
22/09:00pm 12.5 9.8 7.2 70 2.6 SE 11 13 6 7 1024.2 1024.0 0.0
22/08:30pm 13.8 11.8 7.1 64 3.3 SE 7 9 4 5 1024.1 1023.9 0.0
22/08:00pm 13.7 11.6 6.6 62 3.5 SSE 7 11 4 6 1024.1 1023.9 0.0
22/07:30pm 14.7 10.7 6.5 58 4.0 ENE 17 20 9 11 1023.7 1023.6 0.0
22/07:00pm 14.4 10.4 6.5 59 3.9 ENE 17 19 9 10 1023.5 1023.4 0.0
22/06:30pm 14.5 10.3 5.6 55 4.3 ESE 17 19 9 10 1023.3 1023.2 0.0
22/06:00pm 14.8 11.3 5.6 54 4.4 SE 13 17 7 9 1023.1 1023.0 0.0
22/05:30pm 16.9 13.3 4.9 45 5.8 SE 13 17 7 9 1022.7 1022.6 0.0
22/05:00pm 19.3 16.3 4.3 37 7.3 S 9 13 5 7 1022.6 1022.5 0.0
22/04:30pm 20.8 17.9 4.4 34 8.1 S 9 13 5 7 1022.4 1022.2 0.0
22/04:00pm 21.6 17.9 4.2 32 8.6 S 13 17 7 9 1022.5 1022.4 0.0
22/03:30pm 21.5 18.5 4.1 32 8.6 SE 9 15 5 8 1022.4 1022.2 0.0
22/03:00pm 21.8 18.9 4.8 33 8.5 S 9 20 5 11 1022.4 1022.2 0.0
22/02:30pm 21.6 17.9 4.7 33 8.4 SE 13 20 7 11 1022.5 1022.4 0.0
22/02:00pm 21.7 19.3 5.2 34 8.3 SE 7 15 4 8 1022.6 1022.5 0.0
22/01:30pm 21.4 19.1 5.7 36 8.0 SSE 7 15 4 8 1023.0 1022.9 0.0
22/01:00pm 21.6 19.5 6.7 38 7.7 ENE 7 13 4 7 1023.3 1023.2 0.0
22/12:30pm 20.6 17.3 6.5 40 7.2 ESE 13 22 7 12 1023.8 1023.7 0.0
22/12:00pm 20.1 16.4 6.5 41 6.9 E 15 22 8 12 1024.4 1024.2 0.0
22/11:30am 19.2 16.2 7.6 47 6.0 SE 13 22 7 12 1025.2 1025.1 0.0
22/11:00am 17.8 14.6 7.0 49 5.5 SE 13 19 7 10 1025.8 1025.7 0.0
22/10:30am 17.5 14.5 7.8 53 5.0 SE 13 17 7 9 1026.2 1026.1 0.0
22/10:00am 15.9 13.6 7.4 57 4.3 SSE 9 11 5 6 1026.5 1026.4 0.0
22/09:30am 15.0 13.2 8.0 63 3.6 ESE 7 11 4 6 1026.7 1026.6 0.0
22/09:00am 12.2 10.3 6.9 70 2.6 ESE 6 9 3 5 1026.7 1026.6 0.0
22/08:30am 10.2 7.7 6.4 77 1.8 ESE 9 11 5 6 1026.7 1026.6 0.0
22/08:00am 7.6 5.1 4.9 83 1.2 SE 7 9 4 5 1026.4 1026.3 0.0
22/07:30am 5.3 2.6 3.6 89 0.7 E 7 9 4 5 1026.2 1026.1 0.0
22/07:00am 2.8 -0.2 1.0 88 0.7 SE 6 7 3 4 1026.0 1025.9 0.0
22/06:30am 2.5 -0.7 0.7 88 0.7 ESE 7 7 4 4 1025.6 1025.5 0.0
22/06:00am 3.3 0.4 1.2 86 0.8 SE 6 7 3 4 1025.3 1025.2 0.0
22/05:30am 4.0 1.1 1.2 82 1.1 SSE 6 7 3 4 1025.1 1025.0 0.0
22/05:00am 5.5 2.4 3.5 87 0.8 S 9 11 5 6 1024.7 1024.5 0.0
22/04:30am 5.1 2.3 3.3 88 0.8 S 7 9 4 5 1024.5 1024.3 0.0
22/04:00am 4.6 3.0 2.3 85 0.9 CALM 0 0 0 0 1024.5 1024.3 0.0
22/03:30am 4.8 3.2 2.2 83 1.1 CALM 0 0 0 0 1024.5 1024.3 0.0
22/03:00am 4.3 1.3 1.8 84 1.0 SE 7 9 4 5 1024.2 1024.0 0.0
22/02:30am 4.1 1.2 1.5 83 1.0 ESE 6 7 3 4 1023.9 1023.8 0.0
22/02:00am 4.6 1.5 1.6 81 1.2 ESE 7 9 4 5 1023.8 1023.7 0.0
22/01:30am 5.1 1.8 2.3 82 1.2 SE 9 11 5 6 1023.9 1023.8 0.0
22/01:00am 5.0 1.7 2.5 84 1.0 ESE 9 11 5 6 1024.3 1024.1 0.0
22/12:30am 4.9 0.8 2.3 83 1.1 E 13 13 7 7 1024.2 1024.0 0.0
22/12:00am 5.5 1.8 2.2 79 1.4 E 11 13 6 7 1024.2 1024.0 0.0
 
Date/Time
EST
Temp
°C
App
Temp
°C
Dew
Point
°C
Rel
Hum
%
Delta-T
°C
Wind Press
QNH
hPa
Press
MSL
hPa
Rain since
9am
mm
Dir  Spd
km/h
Gust
km/h
Spd
kts
Gust
kts
21/11:30pm 5.9 2.2 2.5 79 1.4 E 11 11 6 6 1024.4 1024.2 0.0
21/11:00pm 6.5 2.8 2.6 76 1.6 E 11 13 6 7 1024.4 1024.2 0.0
21/10:30pm 7.5 4.3 2.8 72 2.0 ESE 9 11 5 6 1024.8 1024.6 0.0
21/10:00pm 9.8 6.4 3.8 66 2.7 SE 11 15 6 8 1025.1 1025.0 0.0
21/09:30pm 13.0 9.3 4.7 57 3.9 SSE 13 17 7 9 1025.2 1025.1 0.0
21/09:00pm 11.9 7.5 4.6 61 3.4 SE 17 19 9 10 1025.2 1025.1 0.0
21/08:30pm 13.8 10.0 4.1 52 4.5 S 13 19 7 10 1024.8 1024.6 0.0
21/08:00pm 14.1 10.0 4.4 52 4.5 S 15 20 8 11 1024.5 1024.3 0.0
21/07:30pm 14.1 10.2 3.6 49 4.8 SSE 13 15 7 8 1023.7 1023.6 0.0
21/07:00pm 15.2 11.2 3.0 44 5.6 SSE 13 15 7 8 1023.2 1023.1 0.0
21/06:30pm 15.8 11.9 3.3 43 5.8 SSE 13 17 7 9 1023.0 1022.9 0.0
21/06:00pm 16.3 13.0 2.7 40 6.2 S 9 11 5 6 1022.7 1022.6 0.0
21/05:30pm 16.9 13.4 1.4 35 7.0 SSW 9 11 5 6 1022.4 1022.2 0.0
21/05:00pm 19.1 15.2 1.1 30 8.2 SSW 11 15 6 8 1022.0 1021.8 0.0
21/04:30pm 20.6 16.1 2.0 29 8.7 SSW 15 20 8 11 1022.0 1021.8 0.0
21/04:00pm 21.2 17.8 2.0 28 9.0 SSW 9 22 5 12 1021.8 1021.6 0.0
21/03:30pm 20.9 17.6 2.7 30 8.7 S 9 15 5 8 1021.7 1021.5 0.0
21/03:00pm 20.7 17.2 3.4 32 8.3 S 11 17 6 9 1021.7 1021.5 0.0
21/02:30pm 20.7 17.1 3.0 31 8.5 SW 11 19 6 10 1022.0 1021.8 0.0
21/02:00pm 20.3 15.6 3.1 32 8.2 SSW 17 24 9 13 1022.2 1022.0 0.0
21/01:30pm 20.8 16.6 4.0 33 8.2 SSW 15 22 8 12 1022.4 1022.2 0.0
21/01:00pm 21.0 16.5 4.1 33 8.3 S 17 24 9 13 1022.7 1022.6 0.0
21/12:30pm 19.7 16.0 4.2 36 7.6 SSW 13 24 7 13 1022.7 1022.6 0.0
21/12:00pm 19.6 17.4 6.4 42 6.7 SSW 7 19 4 10 1023.0 1022.9 0.0
21/11:30am 18.8 16.2 6.0 43 6.4 S 9 15 5 8 1023.4 1023.3 0.0
21/11:00am 17.3 15.2 5.6 46 5.7 S 6 15 3 8 1024.2 1024.0 0.0
21/10:30am 15.9 13.7 7.7 58 4.2 SSW 9 13 5 7 1024.4 1024.2 0.0
21/10:00am 14.8 12.7 8.3 65 3.3 SSE 9 11 5 6 1024.5 1024.3 0.0
21/09:30am 12.9 11.3 8.0 72 2.5 SW 6 7 3 4 1024.9 1024.7 0.0
21/09:00am 10.6 10.3 8.7 88 0.9 CALM 0 6 0 3 1024.7 1024.5 0.0
21/08:30am 7.2 6.0 6.3 94 0.4 SSE 2 6 1 3 1024.6 1024.4 0.0
21/08:00am 5.3 4.0 4.3 93 0.4 CALM 0 0 0 0 1024.5 1024.3 0.0
21/07:30am 4.0 2.5 3.0 93 0.4 CALM 0 0 0 0 1023.8 1023.7 0.0
21/07:00am 3.2 1.5 2.0 92 0.5 CALM 0 0 0 0 1023.5 1023.4 0.0
21/06:30am 3.4 1.8 2.2 92 0.5 CALM 0 0 0 0 1023.2 1023.1 0.0
21/06:00am 3.3 1.2 2.0 91 0.5 E 2 6 1 3 1023.1 1023.0 0.0
21/05:30am 3.4 1.4 2.2 92 0.5 ENE 2 9 1 5 1022.6 1022.5 0.0
21/05:00am 3.8 2.2 2.5 91 0.5 CALM 0 0 0 0 1022.5 1022.4 0.0
21/04:30am 3.6 1.9 2.0 89 0.6 CALM 0 0 0 0 1022.4 1022.2 0.0
21/04:00am 4.2 2.6 2.6 89 0.7 CALM 0 0 0 0 1022.4 1022.2 0.0
21/03:30am 5.0 3.5 3.2 88 0.8 CALM 0 0 0 0 1022.5 1022.4 0.0
21/03:00am 5.7 4.4 4.2 90 0.6 CALM 0 0 0 0 1022.6 1022.5 0.0
21/02:30am 5.3 2.8 3.5 88 0.8 ESE 6 7 3 4 1022.5 1022.4 0.0
21/02:00am 4.7 1.8 2.7 87 0.8 E 7 9 4 5 1022.6 1022.5 0.0
21/01:30am 5.4 2.7 2.6 82 1.2 ENE 6 9 3 5 1022.8 1022.7 0.0
21/01:00am 7.1 4.6 4.8 85 1.0 SE 7 7 4 4 1022.9 1022.8 0.0
21/12:30am 8.4 6.2 5.2 80 1.5 SE 6 9 3 5 1023.0 1022.9 0.0
21/12:00am 9.6 7.6 6.9 83 1.3 S 7 7 4 4 1023.0 1022.9 0.0
 
Date/Time
EST
Temp
°C
App
Temp
°C
Dew
Point
°C
Rel
Hum
%
Delta-T
°C
Wind Press
QNH
hPa
Press
MSL
hPa
Rain since
9am
mm
Dir  Spd
km/h
Gust
km/h
Spd
kts
Gust
kts
20/11:30pm 10.3 7.7 7.9 85 1.2 S 11 13 6 7 1023.3 1023.2 0.0
20/11:00pm 9.2 8.3 5.9 80 1.5 CALM 0 0 0 0 1023.1 1023.0 0.0
20/10:30pm 10.3 8.6 5.7 73 2.2 SSE 4 7 2 4 1023.3 1023.2 0.0
20/10:00pm 11.4 9.4 7.3 76 2.0 SE 7 9 4 5 1023.3 1023.2 0.0
20/09:30pm 12.2 10.1 8.1 76 2.1 SE 9 9 5 5 1023.3 1023.2 0.0
20/09:00pm 12.7 10.4 7.4 70 2.6 SE 9 11 5 6 1023.3 1023.2 0.0
20/08:30pm 14.5 11.6 8.2 66 3.2 SE 13 17 7 9 1023.3 1023.2 0.0
20/08:00pm 15.3 12.4 8.3 63 3.6 SSE 13 17 7 9 1023.3 1023.2 0.0
20/07:30pm 15.8 12.9 8.3 61 3.9 SE 13 17 7 9 1023.0 1022.9 0.0
20/07:00pm 16.4 13.5 8.1 58 4.3 SSE 13 17 7 9 1022.9 1022.8 0.0
20/06:30pm 16.9 13.7 8.3 57 4.5 SSE 15 19 8 10 1022.5 1022.4 0.0

Other Formats:

Comma delimited format used in spreadsheet applications
http://www.bom.gov.au/fwo/IDQ60801/IDQ60801.94542.axf

JavaScript Object Notation format (JSON) in row-major order
http://www.bom.gov.au/fwo/IDQ60801/IDQ60801.94542.json